Time;durP1;ratioP1;P1;durP2;ratioP2;P2;SDS_P1;SDS_P2;PMS_P1;PMS_P2;Temp;Humidity;BMP_temperature;BMP_pressure;BME280_temperature;BME280_humidity;BME280_pressure;Samples;Min_cycle;Max_cycle;Signal;HPM_P1;HPM_P2
2022/03/08 00:01:09;;;;;;;10.50;5.80;;;4.30;99.90;;;;;;5204853;28;20045;-72
2022/03/08 00:03:40;;;;;;;7.55;4.30;;;4.40;99.90;;;;;;5206230;28;20113;-72
2022/03/08 00:06:11;;;;;;;7.82;3.85;;;4.40;99.90;;;;;;5206202;28;20059;-72
2022/03/08 00:08:42;;;;;;;9.55;4.55;;;4.40;99.90;;;;;;5204994;28;20025;-72
2022/03/08 00:11:16;;;;;;;11.63;5.25;;;4.40;99.90;;;;;;5205907;28;20087;-72
2022/03/08 00:13:50;;;;;;;7.95;4.30;;;4.40;99.90;;;;;;5206111;28;20025;-72
2022/03/08 00:16:21;;;;;;;7.38;4.53;;;4.40;99.90;;;;;;5206050;28;20088;-72
2022/03/08 00:18:52;;;;;;;11.15;5.15;;;4.30;99.90;;;;;;5206106;28;20029;-72
2022/03/08 00:21:22;;;;;;;8.27;4.30;;;4.30;99.90;;;;;;5206962;28;20457;-73
2022/03/08 00:23:55;;;;;;;9.20;5.15;;;4.30;99.90;;;;;;5208738;28;20079;-72
2022/03/08 00:26:26;;;;;;;8.82;4.63;;;4.30;99.90;;;;;;5209788;28;20037;-72
2022/03/08 00:28:57;;;;;;;9.30;5.15;;;4.20;99.90;;;;;;5208551;28;20144;-72
2022/03/08 00:31:28;;;;;;;7.93;4.72;;;4.40;99.90;;;;;;5209841;28;20029;-72
2022/03/08 00:34:00;;;;;;;9.85;5.95;;;4.30;99.90;;;;;;5209721;28;20105;-73
2022/03/08 00:36:31;;;;;;;13.75;6.35;;;4.30;99.90;;;;;;5209569;28;20040;-72
2022/03/08 00:39:03;;;;;;;12.55;4.60;;;4.30;99.90;;;;;;5209668;28;20026;-72
2022/03/08 00:41:34;;;;;;;8.50;5.10;;;4.30;99.90;;;;;;5209758;28;20488;-72
2022/03/08 00:44:08;;;;;;;10.13;5.03;;;4.30;99.90;;;;;;5209569;28;20018;-72
2022/03/08 00:46:39;;;;;;;9.30;5.05;;;4.30;99.90;;;;;;5209478;28;20037;-72
2022/03/08 00:49:09;;;;;;;8.63;5.32;;;4.30;99.90;;;;;;5208346;28;20036;-73
2022/03/08 00:51:40;;;;;;;11.30;5.60;;;4.30;99.90;;;;;;5209446;28;20029;-73
2022/03/08 00:54:11;;;;;;;8.63;5.03;;;4.40;99.90;;;;;;5209360;28;20020;-73
2022/03/08 00:56:42;;;;;;;10.80;5.57;;;4.30;99.90;;;;;;5207952;28;20034;-73
2022/03/08 00:59:13;;;;;;;10.82;6.22;;;4.40;99.90;;;;;;5207649;28;20025;-72
2022/03/08 01:01:44;;;;;;;11.20;6.45;;;4.20;99.90;;;;;;5209312;28;20041;-72
2022/03/08 01:04:15;;;;;;;9.68;6.68;;;4.30;99.90;;;;;;5209163;28;20076;-71
2022/03/08 01:06:46;;;;;;;13.15;5.80;;;4.20;99.90;;;;;;5207850;28;20477;-72
2022/03/08 01:09:17;;;;;;;9.55;4.68;;;4.30;99.90;;;;;;5208871;28;20067;-72
2022/03/08 01:11:48;;;;;;;8.32;4.90;;;4.30;99.90;;;;;;5208968;28;20099;-72
2022/03/08 01:14:19;;;;;;;8.35;5.13;;;4.20;99.90;;;;;;5208962;28;20017;-72
2022/03/08 01:16:50;;;;;;;7.22;4.47;;;4.20;99.90;;;;;;5208785;28;20044;-72
2022/03/08 01:19:21;;;;;;;10.45;4.38;;;4.30;99.90;;;;;;5208650;28;20112;-71
2022/03/08 01:21:51;;;;;;;6.70;4.32;;;4.20;99.90;;;;;;5208917;28;20026;-73
2022/03/08 01:24:22;;;;;;;7.32;4.25;;;4.20;99.90;;;;;;5208760;28;20030;-73
2022/03/08 01:26:53;;;;;;;8.65;4.20;;;4.20;99.90;;;;;;5208736;28;20072;-72
2022/03/08 01:29:25;;;;;;;7.20;4.45;;;4.30;99.90;;;;;;5208648;28;20025;-72
2022/03/08 01:34:36;;;;;;;7.55;4.82;;;4.00;99.90;;;;;;5564485;22;20050;-71
2022/03/08 01:37:07;;;;;;;8.68;4.60;;;4.00;99.90;;;;;;5208746;28;20029;-76
2022/03/08 01:39:38;;;;;;;6.68;4.88;;;4.10;99.90;;;;;;5208552;28;20082;-71
2022/03/08 01:42:16;;;;;;;8.85;6.35;;;3.90;99.90;;;;;;5208498;28;20033;-71
2022/03/08 01:44:47;;;;;;;8.55;4.90;;;3.90;99.90;;;;;;5208511;28;20033;-70
2022/03/08 01:47:21;;;;;;;9.02;5.70;;;4.00;99.90;;;;;;5208293;28;20046;-77
2022/03/08 01:49:53;;;;;;;8.50;6.05;;;3.90;99.90;;;;;;5208370;28;20025;-72
2022/03/08 01:52:25;;;;;;;9.95;5.18;;;4.00;99.90;;;;;;5208154;28;20025;-71
2022/03/08 01:54:56;;;;;;;7.13;5.13;;;3.90;99.90;;;;;;5208184;28;20033;-71
2022/03/08 01:57:27;;;;;;;10.48;5.82;;;3.90;99.90;;;;;;5208213;28;20018;-71
2022/03/08 01:59:58;;;;;;;8.35;6.10;;;3.90;99.90;;;;;;5208118;28;20021;-72
2022/03/08 02:02:28;;;;;;;10.38;5.95;;;3.90;99.90;;;;;;5208089;28;20468;-78
2022/03/08 02:04:59;;;;;;;11.48;6.82;;;4.00;99.90;;;;;;5207802;28;20031;-72
2022/03/08 02:07:30;;;;;;;9.13;6.15;;;4.00;99.90;;;;;;5207957;28;20041;-71
2022/03/08 02:10:03;;;;;;;12.32;6.57;;;4.00;99.90;;;;;;5207956;28;20029;-71
2022/03/08 02:12:34;;;;;;;11.45;6.95;;;3.90;99.90;;;;;;5206572;28;20029;-72
2022/03/08 02:15:19;;;;;;;8.27;6.25;;;3.90;99.90;;;;;;5207714;28;20021;-72
2022/03/08 02:17:50;;;;;;;8.60;6.20;;;3.90;99.90;;;;;;5207892;28;20427;-71
2022/03/08 02:20:21;;;;;;;11.85;6.90;;;3.90;99.90;;;;;;5207742;28;20036;-71
2022/03/08 02:22:52;;;;;;;10.80;6.20;;;3.90;99.90;;;;;;5207516;28;20037;-72
2022/03/08 02:25:23;;;;;;;14.30;7.78;;;4.00;99.90;;;;;;5206290;28;20029;-71
2022/03/08 02:27:55;;;;;;;14.95;8.35;;;3.90;99.90;;;;;;5207650;28;20043;-73
2022/03/08 02:30:26;;;;;;;10.07;6.90;;;3.90;99.90;;;;;;5207570;28;20067;-72
2022/03/08 02:32:57;;;;;;;9.75;6.43;;;3.90;99.90;;;;;;5207297;28;20083;-72
2022/03/08 02:35:29;;;;;;;10.10;6.57;;;3.80;99.90;;;;;;5207171;28;20045;-71
2022/03/08 02:38:04;;;;;;;11.85;6.45;;;3.80;99.90;;;;;;5207397;28;20033;-71
2022/03/08 02:40:37;;;;;;;14.95;7.40;;;3.70;99.90;;;;;;5207334;28;20476;-72
2022/03/08 02:43:09;;;;;;;14.63;8.35;;;3.70;99.90;;;;;;5207192;28;20033;-71
2022/03/08 02:45:41;;;;;;;16.27;8.73;;;3.70;99.90;;;;;;5207166;28;20096;-78
2022/03/08 02:48:12;;;;;;;16.17;8.07;;;3.80;99.90;;;;;;5207298;28;20532;-78
2022/03/08 02:50:43;;;;;;;14.57;8.18;;;3.80;99.90;;;;;;5207138;28;20109;-78
2022/03/08 02:53:13;;;;;;;15.48;9.02;;;3.70;99.90;;;;;;5206915;28;20025;-78
2022/03/08 02:55:44;;;;;;;14.52;8.32;;;3.80;99.90;;;;;;5207104;28;20028;-78
2022/03/08 02:58:15;;;;;;;13.00;8.65;;;3.80;99.90;;;;;;5207000;28;20083;-71
2022/03/08 03:00:46;;;;;;;16.98;8.32;;;3.80;99.90;;;;;;5206997;28;20439;-71
2022/03/08 03:03:17;;;;;;;12.77;9.43;;;3.90;99.90;;;;;;5206792;28;20434;-72
2022/03/08 03:05:48;;;;;;;13.50;8.95;;;3.90;99.90;;;;;;5206852;28;20033;-72
2022/03/08 03:08:19;;;;;;;15.10;8.20;;;3.90;99.90;;;;;;5206938;28;20021;-71
2022/03/08 03:10:50;;;;;;;12.93;8.93;;;3.80;99.90;;;;;;5206885;28;20092;-72
2022/03/08 03:13:20;;;;;;;18.13;9.32;;;3.80;99.90;;;;;;5206883;28;20376;-71
2022/03/08 03:15:51;;;;;;;13.80;8.35;;;3.80;99.90;;;;;;5205509;28;20072;-72
2022/03/08 03:18:22;;;;;;;14.88;8.68;;;3.80;99.90;;;;;;5206785;28;20057;-72
2022/03/08 03:20:53;;;;;;;15.32;9.45;;;3.90;99.90;;;;;;5206772;28;20032;-71
2022/03/08 03:23:24;;;;;;;14.80;7.82;;;3.80;99.90;;;;;;5206702;28;20350;-71
2022/03/08 03:25:54;;;;;;;13.20;9.07;;;3.80;99.90;;;;;;5206640;28;20057;-71
2022/03/08 03:28:25;;;;;;;20.27;9.30;;;3.80;99.90;;;;;;5206717;28;20018;-71
2022/03/08 03:30:56;;;;;;;16.50;10.02;;;3.90;99.90;;;;;;5206660;28;20073;-71
2022/03/08 03:33:27;;;;;;;16.52;9.10;;;3.90;99.90;;;;;;5206040;28;20050;-77
2022/03/08 03:35:57;;;;;;;17.33;9.15;;;3.70;99.90;;;;;;5206636;28;20075;-72
2022/03/08 03:38:28;;;;;;;13.15;8.43;;;3.80;99.90;;;;;;5206663;28;20080;-71
2022/03/08 03:40:59;;;;;;;16.38;8.77;;;3.90;99.90;;;;;;5206635;28;20026;-71
2022/03/08 03:43:30;;;;;;;17.77;9.43;;;3.90;99.90;;;;;;5206520;28;20029;-72
2022/03/08 03:46:01;;;;;;;14.07;9.02;;;3.80;99.90;;;;;;5206425;28;20035;-71
2022/03/08 03:48:32;;;;;;;15.55;8.88;;;3.80;99.90;;;;;;5206411;28;20112;-72
2022/03/08 03:51:03;;;;;;;13.60;9.63;;;3.90;99.90;;;;;;5206507;28;20040;-71
2022/03/08 03:53:34;;;;;;;14.85;9.27;;;3.90;99.90;;;;;;5206347;28;20021;-77
2022/03/08 03:56:05;;;;;;;17.95;9.75;;;3.90;99.90;;;;;;5206716;28;20087;-71
2022/03/08 03:58:37;;;;;;;18.33;9.10;;;4.00;99.90;;;;;;5210476;28;20024;-71
2022/03/08 04:01:07;;;;;;;11.90;7.30;;;3.90;99.90;;;;;;5210492;28;20084;-77
2022/03/08 04:03:38;;;;;;;13.30;8.93;;;3.90;99.90;;;;;;5210399;28;20025;-77
2022/03/08 04:06:09;;;;;;;15.60;8.60;;;3.80;99.90;;;;;;5210258;28;20495;-77
2022/03/08 04:08:40;;;;;;;14.68;7.70;;;3.80;99.90;;;;;;5210284;28;20530;-71
2022/03/08 04:11:11;;;;;;;9.30;6.45;;;3.80;99.90;;;;;;5210246;28;20036;-78
2022/03/08 04:13:41;;;;;;;11.95;6.80;;;3.90;99.90;;;;;;5210094;28;20026;-71
2022/03/08 04:16:12;;;;;;;15.98;8.10;;;3.90;99.90;;;;;;5210136;28;20029;-71
2022/03/08 04:18:43;;;;;;;16.35;7.38;;;3.90;99.90;;;;;;5210047;28;20033;-72
2022/03/08 04:21:14;;;;;;;12.15;7.15;;;3.90;99.90;;;;;;5209993;28;20033;-72
2022/03/08 04:23:45;;;;;;;12.02;5.93;;;4.00;99.90;;;;;;5210027;28;20071;-71
2022/03/08 04:26:16;;;;;;;13.57;5.97;;;3.90;99.90;;;;;;5209968;28;20041;-71
2022/03/08 04:28:47;;;;;;;11.63;6.32;;;3.90;99.90;;;;;;5209964;28;20456;-71
2022/03/08 04:31:17;;;;;;;18.42;6.43;;;4.10;99.90;;;;;;5209829;28;20038;-71
2022/03/08 04:33:48;;;;;;;15.25;8.23;;;4.00;99.90;;;;;;5209274;28;20084;-77
2022/03/08 04:36:19;;;;;;;14.23;7.68;;;3.90;99.90;;;;;;5209786;28;20025;-77
2022/03/08 04:38:50;;;;;;;10.27;5.85;;;4.00;99.90;;;;;;5209748;28;20021;-71
2022/03/08 04:41:21;;;;;;;11.02;5.65;;;4.10;99.90;;;;;;5224972;28;20381;-76
2022/03/08 04:43:52;;;;;;;8.30;5.60;;;4.00;99.90;;;;;;5209565;28;20028;-71
2022/03/08 04:46:22;;;;;;;13.93;7.30;;;3.90;99.90;;;;;;5209423;28;20026;-76
2022/03/08 04:48:53;;;;;;;11.73;6.25;;;3.90;99.90;;;;;;5209550;28;20060;-72
2022/03/08 04:51:24;;;;;;;11.00;7.05;;;3.90;99.90;;;;;;5209458;28;20068;-71
2022/03/08 04:53:55;;;;;;;12.93;6.90;;;4.10;99.90;;;;;;5209294;28;20025;-72
2022/03/08 04:56:26;;;;;;;12.35;7.05;;;4.00;99.90;;;;;;5209404;28;20026;-73
2022/03/08 04:58:58;;;;;;;11.35;6.57;;;4.10;99.90;;;;;;5209322;28;20025;-71
2022/03/08 05:01:29;;;;;;;12.18;6.00;;;4.10;99.90;;;;;;5209313;28;20020;-71
2022/03/08 05:04:00;;;;;;;15.50;7.20;;;4.00;99.90;;;;;;5209055;28;20033;-71
2022/03/08 05:06:31;;;;;;;10.85;6.28;;;4.10;99.90;;;;;;5224410;28;20500;-71
2022/03/08 05:09:03;;;;;;;11.93;6.68;;;4.00;99.90;;;;;;5207976;28;20026;-71
2022/03/08 05:11:33;;;;;;;13.35;7.68;;;4.10;99.90;;;;;;5209115;28;20029;-71
2022/03/08 05:14:05;;;;;;;11.80;6.55;;;4.10;99.90;;;;;;5208902;28;20029;-76
2022/03/08 05:16:36;;;;;;;12.25;6.55;;;4.20;99.90;;;;;;5209025;28;20156;-77
2022/03/08 05:19:06;;;;;;;10.20;6.40;;;4.10;99.90;;;;;;5209048;28;20464;-72
2022/03/08 05:21:37;;;;;;;9.75;6.60;;;4.20;99.90;;;;;;5209012;28;20017;-71
2022/03/08 05:24:08;;;;;;;10.77;6.70;;;4.10;99.90;;;;;;5209041;28;20376;-76
2022/03/08 05:26:39;;;;;;;13.38;6.78;;;4.10;99.90;;;;;;5208800;28;20112;-71
2022/03/08 05:29:10;;;;;;;10.93;6.68;;;4.10;99.90;;;;;;5208767;28;20037;-77
2022/03/08 05:31:42;;;;;;;11.50;7.40;;;4.20;99.90;;;;;;5208813;28;20022;-71
2022/03/08 05:34:14;;;;;;;11.32;7.53;;;4.20;99.90;;;;;;5208149;28;20128;-77
2022/03/08 05:36:45;;;;;;;10.90;7.35;;;4.20;99.90;;;;;;5208636;28;20029;-71
2022/03/08 05:39:16;;;;;;;12.73;6.65;;;4.20;99.90;;;;;;5208609;28;20546;-71
2022/03/08 05:41:47;;;;;;;11.65;6.65;;;4.20;99.90;;;;;;5208588;28;20030;-77
2022/03/08 05:44:17;;;;;;;11.52;6.00;;;4.10;99.90;;;;;;5207228;28;20397;-71
2022/03/08 05:46:49;;;;;;;9.02;5.82;;;4.30;99.90;;;;;;5208369;28;20049;-71
2022/03/08 05:49:22;;;;;;;9.23;5.60;;;4.20;99.90;;;;;;5208400;28;20018;-71
2022/03/08 05:51:54;;;;;;;11.00;6.88;;;4.20;99.90;;;;;;5208376;28;20053;-71
2022/03/08 05:54:24;;;;;;;9.10;5.88;;;4.20;99.90;;;;;;5208116;28;20074;-77
2022/03/08 05:56:55;;;;;;;11.82;6.70;;;4.20;99.90;;;;;;5208200;28;20049;-71
2022/03/08 05:59:26;;;;;;;8.45;6.35;;;4.20;99.90;;;;;;5208156;28;20406;-77
2022/03/08 06:01:57;;;;;;;15.10;6.55;;;4.30;99.90;;;;;;5208028;28;20116;-76
2022/03/08 06:04:28;;;;;;;11.70;6.75;;;4.30;99.90;;;;;;5207820;28;20088;-71
2022/03/08 06:06:58;;;;;;;10.50;6.70;;;4.30;99.90;;;;;;5207916;28;20044;-71
2022/03/08 06:09:29;;;;;;;10.50;7.50;;;4.40;99.90;;;;;;5207863;28;20057;-76
2022/03/08 06:12:00;;;;;;;13.65;7.70;;;4.30;99.90;;;;;;5207872;28;20116;-74
2022/03/08 06:14:32;;;;;;;12.23;7.13;;;4.40;99.90;;;;;;5207709;28;20022;-71
2022/03/08 06:17:03;;;;;;;15.93;7.53;;;4.40;99.90;;;;;;5207781;28;20124;-71
2022/03/08 06:19:34;;;;;;;10.65;6.93;;;4.40;99.90;;;;;;5207448;28;20041;-71
2022/03/08 06:22:05;;;;;;;11.55;7.28;;;4.30;99.90;;;;;;5207691;28;20036;-77
2022/03/08 06:24:36;;;;;;;11.00;6.75;;;4.40;99.90;;;;;;5207635;28;20033;-71
2022/03/08 06:27:07;;;;;;;11.95;7.80;;;4.30;99.90;;;;;;5207549;28;20033;-77
2022/03/08 06:29:38;;;;;;;10.68;6.93;;;4.50;99.90;;;;;;5207602;28;20400;-77
2022/03/08 06:32:09;;;;;;;13.15;7.10;;;4.30;99.90;;;;;;5207464;28;20030;-76
2022/03/08 06:34:40;;;;;;;10.77;6.97;;;4.40;99.90;;;;;;5206999;28;20045;-73
2022/03/08 06:37:12;;;;;;;13.27;6.75;;;4.30;99.90;;;;;;5207390;28;20029;-71
2022/03/08 06:39:42;;;;;;;12.10;8.57;;;4.40;99.90;;;;;;5207363;28;20384;-71
2022/03/08 06:42:14;;;;;;;12.50;8.63;;;4.50;99.90;;;;;;5206042;28;20040;-71
2022/03/08 06:44:44;;;;;;;11.52;7.70;;;4.60;99.90;;;;;;5207306;28;20025;-71
2022/03/08 06:47:15;;;;;;;10.18;7.07;;;4.50;99.90;;;;;;5207327;28;20044;-76
2022/03/08 06:49:46;;;;;;;13.00;8.65;;;4.50;99.90;;;;;;5207228;28;20018;-74
2022/03/08 06:52:17;;;;;;;12.32;7.70;;;4.50;99.90;;;;;;5207150;28;20097;-77
2022/03/08 06:54:48;;;;;;;11.43;7.78;;;4.60;99.90;;;;;;5206963;28;20109;-71
2022/03/08 06:57:18;;;;;;;10.93;7.55;;;4.60;99.90;;;;;;5207071;28;20021;-71
2022/03/08 06:59:49;;;;;;;16.58;8.45;;;4.50;99.90;;;;;;5207014;28;20033;-71
2022/03/08 07:02:20;;;;;;;12.65;8.35;;;4.60;99.90;;;;;;5206927;28;20024;-77
2022/03/08 07:04:51;;;;;;;13.65;7.85;;;4.50;99.90;;;;;;5206861;28;20056;-71
2022/03/08 07:07:23;;;;;;;9.00;6.03;;;4.50;99.90;;;;;;5206844;28;20049;-71
2022/03/08 07:09:53;;;;;;;8.98;5.10;;;4.30;99.90;;;;;;5207041;28;20018;-71
2022/03/08 07:12:24;;;;;;;9.57;4.93;;;4.60;99.90;;;;;;5206795;28;20056;-71
2022/03/08 07:14:55;;;;;;;8.05;5.95;;;4.60;99.90;;;;;;5206746;28;20036;-72
2022/03/08 07:17:26;;;;;;;7.63;5.45;;;4.50;99.90;;;;;;5206739;28;20498;-72
2022/03/08 07:19:57;;;;;;;7.07;5.15;;;4.40;99.90;;;;;;5206726;28;20026;-78
2022/03/08 07:22:27;;;;;;;7.93;4.88;;;4.40;99.90;;;;;;5206649;28;20013;-71
2022/03/08 07:24:59;;;;;;;10.15;6.53;;;4.30;99.90;;;;;;5206835;28;20025;-72
2022/03/08 07:27:30;;;;;;;14.45;7.68;;;4.20;99.90;;;;;;5206666;28;20083;-73
2022/03/08 07:30:02;;;;;;;10.18;6.85;;;4.30;99.90;;;;;;5206655;28;20470;-71
2022/03/08 07:32:34;;;;;;;7.72;4.70;;;4.30;99.90;;;;;;5205860;28;20111;-71
2022/03/08 07:35:06;;;;;;;8.80;5.95;;;4.10;99.90;;;;;;5206107;28;20052;-78
2022/03/08 07:37:38;;;;;;;7.03;4.35;;;4.30;99.90;;;;;;5206660;28;20116;-72
2022/03/08 07:40:09;;;;;;;10.60;5.40;;;4.20;99.90;;;;;;5206526;28;20029;-72
2022/03/08 07:42:40;;;;;;;7.88;6.07;;;4.30;99.90;;;;;;5206415;28;20076;-78
2022/03/08 07:45:11;;;;;;;9.90;6.53;;;4.30;99.90;;;;;;5206560;28;20346;-72
2022/03/08 07:47:42;;;;;;;11.93;5.75;;;4.40;99.90;;;;;;5206451;28;20080;-72
2022/03/08 07:50:12;;;;;;;12.10;7.10;;;4.30;99.90;;;;;;5206391;28;20022;-72
2022/03/08 07:52:43;;;;;;;10.75;6.63;;;4.40;99.90;;;;;;5206382;28;20369;-71
2022/03/08 07:55:14;;;;;;;9.90;5.60;;;4.40;99.90;;;;;;5206254;28;20092;-71
2022/03/08 07:57:45;;;;;;;12.27;6.18;;;4.30;99.90;;;;;;5206343;28;20022;-78
2022/03/08 08:00:16;;;;;;;9.55;6.20;;;4.30;99.90;;;;;;5206361;28;20036;-71
2022/03/08 08:02:46;;;;;;;8.82;5.18;;;4.40;99.90;;;;;;5221578;28;20488;-72
2022/03/08 08:05:18;;;;;;;10.50;6.28;;;4.60;99.90;;;;;;5206309;28;20033;-71
2022/03/08 08:07:48;;;;;;;10.45;6.25;;;4.30;99.90;;;;;;5206301;28;20041;-71
2022/03/08 08:10:19;;;;;;;15.18;7.13;;;4.30;99.90;;;;;;5206312;28;20029;-72
2022/03/08 08:12:50;;;;;;;11.25;6.20;;;4.30;99.90;;;;;;5206178;28;20029;-72
2022/03/08 08:15:21;;;;;;;7.72;6.05;;;4.40;99.90;;;;;;5206131;28;20029;-71
2022/03/08 08:17:52;;;;;;;13.30;8.13;;;4.40;99.90;;;;;;5206288;28;20034;-72
2022/03/08 08:20:23;;;;;;;9.55;7.13;;;4.60;99.90;;;;;;5206161;28;20539;-72
2022/03/08 08:22:54;;;;;;;10.20;7.28;;;4.70;99.90;;;;;;5206131;28;20030;-78
2022/03/08 08:25:25;;;;;;;10.77;6.40;;;4.80;99.90;;;;;;5206156;28;20065;-72
2022/03/08 08:27:56;;;;;;;10.10;7.00;;;4.70;99.90;;;;;;5206127;28;20068;-71
2022/03/08 08:30:26;;;;;;;14.25;6.90;;;4.60;99.90;;;;;;5206077;28;20030;-78
2022/03/08 08:32:57;;;;;;;11.57;7.00;;;4.70;99.90;;;;;;5205961;28;20032;-79
2022/03/08 08:35:28;;;;;;;9.40;5.57;;;4.60;99.90;;;;;;5205780;28;20044;-78
2022/03/08 08:37:59;;;;;;;12.35;6.50;;;4.40;99.90;;;;;;5206023;28;20503;-78
2022/03/08 08:40:30;;;;;;;8.40;5.13;;;4.60;99.90;;;;;;5206030;28;20451;-71
2022/03/08 08:43:02;;;;;;;10.50;6.40;;;4.70;99.90;;;;;;5207545;28;20038;-72
2022/03/08 08:45:35;;;;;;;14.55;6.82;;;4.60;99.90;;;;;;5209607;28;20409;-72
2022/03/08 08:48:07;;;;;;;13.27;7.18;;;4.60;99.90;;;;;;5209681;28;20108;-72
2022/03/08 08:50:38;;;;;;;9.85;5.65;;;4.70;99.90;;;;;;5209532;28;20026;-72
2022/03/08 08:53:09;;;;;;;6.50;5.30;;;4.40;99.90;;;;;;5224803;28;20095;-71
2022/03/08 08:55:40;;;;;;;12.88;6.00;;;4.20;99.90;;;;;;5209399;28;20029;-71
2022/03/08 08:58:11;;;;;;;8.00;5.90;;;4.30;99.90;;;;;;5209377;28;20468;-71
2022/03/08 09:00:42;;;;;;;12.23;6.85;;;4.30;99.90;;;;;;5209369;28;20033;-72
2022/03/08 09:03:14;;;;;;;9.60;5.95;;;4.20;99.90;;;;;;5224315;28;20034;-72
2022/03/08 09:05:46;;;;;;;10.85;5.68;;;4.20;99.90;;;;;;5209199;28;20539;-78
2022/03/08 09:08:23;;;;;;;6.72;4.38;;;4.10;99.90;;;;;;5209181;28;20045;-71
2022/03/08 09:10:55;;;;;;;7.25;4.57;;;4.10;99.90;;;;;;5207911;28;20024;-72
2022/03/08 09:13:26;;;;;;;7.72;5.07;;;4.00;99.90;;;;;;5208976;28;20037;-72
2022/03/08 09:15:57;;;;;;;7.85;5.50;;;4.10;99.90;;;;;;5209074;28;20026;-75
2022/03/08 09:18:28;;;;;;;9.65;4.25;;;4.20;99.90;;;;;;5209043;28;20022;-71
2022/03/08 09:20:59;;;;;;;7.65;4.38;;;4.30;99.90;;;;;;5208997;28;20032;-72
2022/03/08 09:23:29;;;;;;;11.52;6.18;;;4.30;99.90;;;;;;5208923;28;20036;-71
2022/03/08 09:26:00;;;;;;;11.07;6.47;;;4.20;99.90;;;;;;5208818;28;20036;-71
2022/03/08 09:28:32;;;;;;;9.85;5.90;;;4.30;99.90;;;;;;5208853;28;20037;-72
2022/03/08 09:31:03;;;;;;;6.90;4.57;;;4.30;99.90;;;;;;5208715;28;20504;-72
2022/03/08 09:33:34;;;;;;;12.10;5.50;;;4.30;99.90;;;;;;5208171;28;20053;-76
2022/03/08 09:36:05;;;;;;;7.57;4.90;;;4.30;99.90;;;;;;5224030;28;20041;-71
2022/03/08 09:38:37;;;;;;;7.30;4.82;;;4.20;99.90;;;;;;5208618;28;20376;-72
2022/03/08 09:41:09;;;;;;;8.18;4.93;;;4.20;99.90;;;;;;5208554;28;20014;-72
2022/03/08 09:43:40;;;;;;;12.35;6.38;;;4.20;99.90;;;;;;5208454;28;20029;-71
2022/03/08 09:46:11;;;;;;;10.02;6.18;;;4.00;99.90;;;;;;5208255;28;20377;-71
2022/03/08 09:48:42;;;;;;;11.90;7.63;;;3.90;99.90;;;;;;5208355;28;20099;-77
2022/03/08 09:51:15;;;;;;;13.63;9.15;;;3.80;99.90;;;;;;5208354;28;20365;-71
2022/03/08 09:53:52;;;;;;;13.38;8.93;;;3.90;99.90;;;;;;5207659;28;20107;-72
2022/03/08 09:56:23;;;;;;;11.73;8.45;;;4.00;99.90;;;;;;5208239;28;20025;-71
2022/03/08 09:58:53;;;;;;;15.05;9.48;;;4.00;99.90;;;;;;5208212;28;20022;-71
2022/03/08 10:01:25;;;;;;;15.10;10.50;;;4.10;99.90;;;;;;5208055;28;20018;-72
2022/03/08 10:03:56;;;;;;;16.50;10.18;;;4.10;99.90;;;;;;5207813;28;20163;-71
2022/03/08 10:06:40;;;;;;;12.52;8.85;;;4.10;99.90;;;;;;5207860;28;20030;-72
2022/03/08 10:09:16;;;;;;;17.95;10.77;;;3.90;99.90;;;;;;5207998;28;20436;-72
2022/03/08 10:11:51;;;;;;;15.68;10.27;;;3.90;99.90;;;;;;5207888;28;20032;-72
2022/03/08 10:14:38;;;;;;;14.35;9.90;;;4.00;99.90;;;;;;5207720;28;20473;-71
2022/03/08 10:17:39;;;;;;;12.65;8.95;;;4.00;99.90;;;;;;5207947;28;20483;-71
2022/03/08 10:20:12;;;;;;;14.85;8.95;;;3.80;99.90;;;;;;5207827;28;20035;-71
2022/03/08 10:22:44;;;;;;;13.15;9.43;;;3.90;99.90;;;;;;5207534;28;20044;-71
2022/03/08 10:25:22;;;;;;;14.20;8.35;;;3.80;99.90;;;;;;5207737;28;20461;-78
2022/03/08 10:27:55;;;;;;;11.60;7.82;;;3.70;99.90;;;;;;5207470;28;20095;-71
2022/03/08 10:30:26;;;;;;;12.60;8.75;;;4.00;99.90;;;;;;5207542;28;20065;-71
2022/03/08 10:32:59;;;;;;;13.43;9.00;;;3.90;99.90;;;;;;5207326;28;20103;-71
2022/03/08 10:35:31;;;;;;;13.15;8.57;;;3.90;99.90;;;;;;5207113;28;20063;-71
2022/03/08 10:38:05;;;;;;;12.98;8.02;;;3.90;99.90;;;;;;5207511;28;20072;-71
2022/03/08 10:40:36;;;;;;;16.42;9.90;;;3.70;99.90;;;;;;5207526;28;20368;-71
2022/03/08 10:43:13;;;;;;;14.23;10.10;;;3.70;99.90;;;;;;5207324;28;20164;-71
2022/03/08 10:45:49;;;;;;;17.20;9.18;;;4.00;99.90;;;;;;5207233;28;20030;-74
2022/03/08 10:48:25;;;;;;;11.77;8.25;;;3.90;99.90;;;;;;5207239;28;20040;-75
2022/03/08 10:50:56;;;;;;;15.65;8.75;;;3.80;99.90;;;;;;5207326;28;20061;-79
2022/03/08 10:53:27;;;;;;;13.25;9.15;;;3.70;99.90;;;;;;5207024;28;20492;-77
2022/03/08 10:55:58;;;;;;;13.68;8.15;;;3.70;99.90;;;;;;5207266;28;20376;-73
2022/03/08 10:58:29;;;;;;;17.95;9.27;;;3.80;99.90;;;;;;5207073;28;20087;-72
2022/03/08 11:01:01;;;;;;;16.05;10.13;;;3.80;99.90;;;;;;5207055;28;20135;-73
2022/03/08 11:03:32;;;;;;;17.48;11.05;;;3.90;99.90;;;;;;5206730;28;20029;-73
2022/03/08 11:06:06;;;;;;;15.05;9.20;;;3.90;99.90;;;;;;5206082;28;20034;-72
2022/03/08 11:08:37;;;;;;;15.52;11.23;;;4.00;99.90;;;;;;5206849;28;20040;-72
2022/03/08 11:11:08;;;;;;;15.05;9.75;;;4.10;99.90;;;;;;5206891;28;20373;-72
2022/03/08 11:13:42;;;;;;;13.88;9.65;;;3.90;99.90;;;;;;5206621;28;20030;-72
2022/03/08 11:16:15;;;;;;;14.98;8.88;;;3.90;99.90;;;;;;5206855;28;20029;-72
2022/03/08 11:18:49;;;;;;;16.50;10.02;;;3.90;99.90;;;;;;5206853;28;20025;-72
2022/03/08 11:21:21;;;;;;;16.42;10.05;;;4.00;99.90;;;;;;5206732;28;20028;-73
2022/03/08 11:23:52;;;;;;;15.68;10.55;;;4.10;99.90;;;;;;5206877;28;20468;-72
2022/03/08 11:26:24;;;;;;;17.85;10.82;;;4.00;99.90;;;;;;5206709;28;20018;-73
2022/03/08 11:28:55;;;;;;;17.38;10.23;;;4.20;99.90;;;;;;5206565;28;20029;-72
2022/03/08 11:31:31;;;;;;;17.02;11.50;;;4.20;99.90;;;;;;5206605;28;20550;-73
2022/03/08 11:34:06;;;;;;;21.48;12.80;;;4.40;99.90;;;;;;5206167;28;20053;-72
2022/03/08 11:36:44;;;;;;;18.58;11.43;;;4.30;99.90;;;;;;5206694;28;20416;-72
2022/03/08 11:39:15;;;;;;;17.67;11.10;;;4.40;99.90;;;;;;5206605;28;20033;-73
2022/03/08 11:41:52;;;;;;;18.20;11.63;;;4.30;99.90;;;;;;5206476;28;20025;-73
2022/03/08 11:44:32;;;;;;;18.27;12.90;;;4.50;99.90;;;;;;5206634;28;20041;-72
2022/03/08 11:47:09;;;;;;;16.23;10.98;;;4.50;99.90;;;;;;5206492;28;20038;-73
2022/03/08 11:49:45;;;;;;;16.13;9.13;;;4.40;99.90;;;;;;5206502;28;20032;-73
2022/03/08 11:52:25;;;;;;;11.90;8.93;;;4.40;99.90;;;;;;5206434;28;20025;-72
2022/03/08 11:55:06;;;;;;;16.90;9.67;;;4.60;99.90;;;;;;5206344;28;20057;-72
2022/03/08 11:57:54;;;;;;;;;;;4.60;99.90;;;;;;5206825;28;20322;-73
2022/03/08 12:00:30;;;;;;;7.22;5.50;;;4.60;99.90;;;;;;5206460;28;20352;-72
2022/03/08 12:03:04;;;;;;;8.02;5.30;;;4.40;99.90;;;;;;5206114;28;20040;-72
2022/03/08 12:06:07;;;;;;;10.15;6.03;;;4.50;99.90;;;;;;5206353;28;20037;-72
2022/03/08 12:08:39;;;;;;;16.70;7.60;;;4.60;99.90;;;;;;5194759;28;20048;-72
2022/03/08 12:11:25;;;;;;;12.80;9.52;;;4.60;99.90;;;;;;5206346;28;20346;-72
2022/03/08 12:14:08;;;;;;;15.13;9.75;;;4.60;99.90;;;;;;5206152;28;20111;-74
2022/03/08 12:16:49;;;;;;;14.80;9.32;;;4.50;99.90;;;;;;5206252;28;20090;-72
2022/03/08 12:19:34;;;;;;;11.82;8.75;;;4.60;99.90;;;;;;5210055;28;20029;-73
2022/03/08 12:22:10;;;;;;;13.15;9.25;;;4.60;99.90;;;;;;5210061;28;20030;-72
2022/03/08 12:24:48;;;;;;;14.13;9.25;;;4.60;99.90;;;;;;5210081;28;20025;-73
2022/03/08 12:27:21;;;;;;;13.13;6.68;;;4.60;99.90;;;;;;5210022;28;20044;-72
2022/03/08 12:30:00;;;;;;;10.15;6.93;;;4.70;99.90;;;;;;5209809;28;20113;-72
2022/03/08 12:32:32;;;;;;;11.10;7.30;;;4.70;99.90;;;;;;5209689;28;20033;-72
2022/03/08 12:35:05;;;;;;;14.77;9.18;;;4.70;99.90;;;;;;5209320;28;20058;-72
2022/03/08 12:37:51;;;;;;;19.00;11.38;;;4.50;99.90;;;;;;5209886;28;20033;-72
2022/03/08 12:40:33;;;;;;;20.75;12.90;;;4.50;99.90;;;;;;5209785;28;20113;-72
2022/03/08 12:43:11;;;;;;;20.30;12.70;;;4.40;99.90;;;;;;5209661;28;20056;-78
2022/03/08 12:45:45;;;;;;;25.75;14.60;;;4.30;99.90;;;;;;5209688;28;20017;-72
2022/03/08 12:48:18;;;;;;;22.50;14.20;;;4.40;99.90;;;;;;5209656;28;20358;-72
2022/03/08 12:50:56;;;;;;;23.35;14.60;;;4.40;99.90;;;;;;5209614;28;20022;-72
2022/03/08 12:53:31;;;;;;;23.25;14.88;;;4.40;99.90;;;;;;5209415;28;20021;-72
2022/03/08 12:56:10;;;;;;;25.55;14.52;;;4.50;99.90;;;;;;5209458;28;20034;-73
2022/03/08 12:58:41;;;;;;;23.38;14.68;;;4.30;99.90;;;;;;5209412;28;20029;-72
2022/03/08 13:01:14;;;;;;;21.60;14.05;;;4.40;99.90;;;;;;5209262;28;20036;-72
2022/03/08 13:03:47;;;;;;;22.13;13.80;;;4.40;99.90;;;;;;5209120;28;20105;-79
2022/03/08 13:06:18;;;;;;;20.08;13.05;;;4.50;99.90;;;;;;5209257;28;20033;-72
2022/03/08 13:08:49;;;;;;;21.50;12.82;;;4.50;99.90;;;;;;5209223;28;20083;-75
2022/03/08 13:11:20;;;;;;;24.20;14.13;;;4.40;99.90;;;;;;5209169;28;20025;-72
2022/03/08 13:13:51;;;;;;;18.50;11.13;;;4.50;99.90;;;;;;5209030;28;20017;-72
2022/03/08 13:16:23;;;;;;;25.55;13.32;;;4.40;99.90;;;;;;5209077;28;20028;-72